Time;durP1;ratioP1;P1;durP2;ratioP2;P2;SDS_P1;SDS_P2;PMS_P1;PMS_P2;Temp;Humidity;BMP_temperature;BMP_pressure;BME280_temperature;BME280_humidity;BME280_pressure;Samples;Min_cycle;Max_cycle;Signal;HPM_P1;HPM_P2
2023/04/19 00:01:11;;;;;;;;;;;;;;;30.50;72.82;100751.50;5097420;27;64304;-40
2023/04/19 00:03:41;;;;;;;;;;;;;;;30.56;73.18;100755.19;5097043;27;69964;-41
2023/04/19 00:06:13;;;;;;;;;;;;;;;30.59;73.25;100762.06;5094720;27;65787;-40
2023/04/19 00:08:44;;;;;;;;;;;;;;;30.65;73.27;100764.72;5094344;27;70235;-43
2023/04/19 00:11:14;;;;;;;;;;;;;;;30.66;73.63;100771.78;5106772;27;66076;-41
2023/04/19 00:13:45;;;;;;;;;;;;;;;30.61;70.49;100766.19;5097543;27;70813;-39
2023/04/19 00:16:15;;;;;;;;;;;;;;;30.61;69.35;100773.50;5091109;27;65237;-40
2023/04/19 00:18:45;;;;;;;;;;;;;;;30.63;68.58;100780.34;5095953;27;69578;-41
2023/04/19 00:21:16;;;;;;;;;;;;;;;30.27;68.11;100719.63;5089552;27;66657;-40
2023/04/19 00:23:46;;;;;;;;;;;;;;;30.67;67.79;100786.16;5095345;27;70266;-40
2023/04/19 00:26:17;;;;;;;;;;;;;;;30.70;67.28;100794.69;5092402;27;64959;-40
2023/04/19 00:28:52;;;;;;;;;;;;;;;30.71;66.86;100790.91;5094975;27;68732;-41
2023/04/19 00:31:22;;;;;;;;;;;;;;;30.72;66.73;100792.56;5095011;27;65997;-39
2023/04/19 00:33:52;;;;;;;;;;;;;;;30.75;66.29;100798.59;5093090;27;70390;-40
2023/04/19 00:36:22;;;;;;;;;;;;;;;30.77;65.93;100810.03;5090660;27;66202;-41
2023/04/19 00:38:52;;;;;;;;;;;;;;;30.78;65.42;100811.69;5090871;27;70375;-40
2023/04/19 00:41:23;;;;;;;;;;;;;;;30.80;65.57;100809.63;5092127;27;66487;-40
2023/04/19 00:43:53;;;;;;;;;;;;;;;30.82;65.54;100812.94;5096416;27;69773;-40
2023/04/19 00:46:24;;;;;;;;;;;;;;;30.82;65.18;100816.47;5091358;27;66920;-40
2023/04/19 00:48:55;;;;;;;;;;;;;;;30.83;64.89;100811.88;5094829;27;69344;-41
2023/04/19 00:51:26;;;;;;;;;;;;;;;30.86;64.76;100819.56;5091510;27;66576;-40
2023/04/19 00:53:57;;;;;;;;;;;;;;;30.86;65.12;100820.38;5086463;27;70224;-40
2023/04/19 00:56:28;;;;;;;;;;;;;;;30.86;64.67;100819.56;5094365;27;66214;-41
2023/04/19 00:58:58;;;;;;;;;;;;;;;30.89;64.49;100819.94;5098266;27;69840;-40
2023/04/19 01:01:29;;;;;;;;;;;;;;;30.90;64.49;100820.78;5106280;27;67085;-40
2023/04/19 01:04:00;;;;;;;;;;;;;;;30.91;64.31;100819.72;5095687;27;69626;-40
2023/04/19 01:06:31;;;;;;;;;;;;;;;30.93;64.29;100825.75;5083628;27;66949;-41
2023/04/19 01:09:01;;;;;;;;;;;;;;;30.93;64.50;100821.16;5093280;27;69665;-40
2023/04/19 01:11:32;;;;;;;;;;;;;;;30.94;64.08;100822.00;5092311;27;65711;-41
2023/04/19 01:14:02;;;;;;;;;;;;;;;30.96;64.09;100819.91;5088156;27;70455;-40
2023/04/19 01:16:33;;;;;;;;;;;;;;;30.98;63.72;100825.94;5082373;27;66322;-40
2023/04/19 01:19:03;;;;;;;;;;;;;;;30.99;63.70;100824.03;5093625;27;70957;-40
2023/04/19 01:21:38;;;;;;;;;;;;;;;31.01;63.48;100827.34;5090656;27;67546;-40
2023/04/19 01:24:08;;;;;;;;;;;;;;;31.03;63.32;100827.94;5092319;27;70480;-40
2023/04/19 01:26:39;;;;;;;;;;;;;;;31.04;63.87;100827.75;5096516;27;66110;-39
2023/04/19 01:29:09;;;;;;;;;;;;;;;31.05;63.32;100829.38;5113900;27;70351;-40
2023/04/19 01:31:39;;;;;;;;;;;;;;;31.06;63.82;100833.75;5100291;27;66272;-40
2023/04/19 01:34:10;;;;;;;;;;;;;;;31.08;63.46;100834.34;5094644;27;70021;-40
2023/04/19 01:36:40;;;;;;;;;;;;;;;31.10;63.46;100832.25;5087303;27;66519;-40
2023/04/19 01:39:10;;;;;;;;;;;;;;;31.12;63.59;100834.72;5092875;27;70258;-39
2023/04/19 01:41:41;;;;;;;;;;;;;;;31.13;63.28;100831.81;5106929;27;65310;-41
2023/04/19 01:44:11;;;;;;;;;;;;;;;31.16;63.46;100839.50;5091356;27;69768;-39
2023/04/19 01:46:42;;;;;;;;;;;;;;;31.19;63.17;100835.50;5099032;27;66245;-40
2023/04/19 01:49:13;;;;;;;;;;;;;;;31.21;63.19;100829.88;5093828;27;68810;-40
2023/04/19 01:51:44;;;;;;;;;;;;;;;31.23;63.15;100825.03;5097868;27;65697;-40
2023/04/19 01:54:15;;;;;;;;;;;;;;;31.24;63.00;100826.72;5081689;27;69319;-40
2023/04/19 01:56:46;;;;;;;;;;;;;;;31.26;63.14;100824.59;5088356;27;67722;-40
2023/04/19 01:59:16;;;;;;;;;;;;;;;31.27;62.89;100826.25;5110508;27;69940;-40
2023/04/19 02:01:46;;;;;;;;;;;;;;;31.29;63.10;100818.75;5101655;27;65838;-39
2023/04/19 02:04:20;;;;;;;;;;;;;;;31.31;63.20;100816.63;5090655;27;70769;-40
2023/04/19 02:06:51;;;;;;;;;;;;;;;31.33;63.28;100814.53;5087538;27;66773;-40
2023/04/19 02:09:21;;;;;;;;;;;;;;;31.34;63.46;100814.31;5096066;27;70104;-40
2023/04/19 02:11:52;;;;;;;;;;;;;;;31.37;63.10;100815.75;5096305;27;66969;-40
2023/04/19 02:14:22;;;;;;;;;;;;;;;31.37;63.08;100821.16;5093073;27;70786;-40
2023/04/19 02:16:53;;;;;;;;;;;;;;;31.40;62.98;100823.44;5094107;27;66436;-40
2023/04/19 02:19:24;;;;;;;;;;;;;;;31.41;63.02;100816.16;5097502;27;69645;-39
2023/04/19 02:21:56;;;;;;;;;;;;;;;31.41;62.77;100806.13;5089565;27;67314;-39
2023/04/19 02:24:27;;;;;;;;;;;;;;;31.45;63.08;100812.72;5095702;27;70318;-40
2023/04/19 02:26:57;;;;;;;;;;;;;;;31.46;63.35;100811.69;5095723;27;66627;-40
2023/04/19 02:29:27;;;;;;;;;;;;;;;31.48;63.16;100806.88;5099036;27;69833;-40
2023/04/19 02:31:58;;;;;;;;;;;;;;;31.48;63.21;100801.47;5097641;27;66854;-39
2023/04/19 02:34:29;;;;;;;;;;;;;;;31.51;62.73;100809.16;5095248;27;69174;-40
2023/04/19 02:37:03;;;;;;;;;;;;;;;31.53;62.89;100804.31;5082028;27;66024;-40
2023/04/19 02:39:33;;;;;;;;;;;;;;;31.54;62.73;100805.97;5095071;27;69828;-40
2023/04/19 02:42:04;;;;;;;;;;;;;;;31.56;62.94;100801.13;5092421;27;66691;-40
2023/04/19 02:44:34;;;;;;;;;;;;;;;31.58;62.41;100801.75;5111242;27;70474;-40
2023/04/19 02:47:05;;;;;;;;;;;;;;;31.60;62.66;100799.63;5101594;27;66120;-40
2023/04/19 02:49:40;;;;;;;;;;;;;;;31.63;62.56;100797.53;5086804;27;70641;-41
2023/04/19 02:52:11;;;;;;;;;;;;;;;31.64;62.49;100791.03;5094905;27;66388;-40
2023/04/19 02:54:42;;;;;;;;;;;;;;;31.66;62.12;100791.66;5093097;27;71116;-40
2023/04/19 02:57:12;;;;;;;;;;;;;;;31.67;62.18;100793.31;5094237;27;67473;-40
2023/04/19 02:59:44;;;;;;;;;;;;;;;31.67;62.31;100788.69;5096958;27;70554;-39
2023/04/19 03:02:15;;;;;;;;;;;;;;;31.70;62.22;100790.94;5091419;27;65942;-40
2023/04/19 03:04:46;;;;;;;;;;;;;;;31.72;62.34;100790.75;5091759;27;69565;-40
2023/04/19 03:07:16;;;;;;;;;;;;;;;31.74;62.07;100788.63;5115010;27;66789;-39
2023/04/19 03:09:46;;;;;;;;;;;;;;;31.76;62.12;100786.50;5092231;27;69697;-39
2023/04/19 03:12:16;;;;;;;;;;;;;;;31.78;61.93;100778.97;5094086;27;67074;-40
2023/04/19 03:14:48;;;;;;;;;;;;;;;31.80;61.84;100777.69;5090526;27;70544;-40
2023/04/19 03:17:18;;;;;;;;;;;;;;;31.82;61.91;100772.88;5078129;27;65588;-39
2023/04/19 03:19:49;;;;;;;;;;;;;;;31.85;61.74;100774.28;5079776;27;69472;-41
2023/04/19 03:22:20;;;;;;;;;;;;;;;31.86;61.74;100770.50;5094721;27;65923;-39
2023/04/19 03:24:50;;;;;;;;;;;;;;;31.86;61.63;100754.25;5090785;27;69464;-41
2023/04/19 03:27:23;;;;;;;;;;;;;;;31.91;61.54;100762.56;5107520;27;65177;-40
2023/04/19 03:29:59;;;;;;;;;;;;;;;31.95;61.56;100754.78;5062808;27;69143;-40
2023/04/19 03:32:31;;;;;;;;;;;;;;;31.96;61.49;100749.13;5095747;27;66629;-38
2023/04/19 03:35:02;;;;;;;;;;;;;;;31.98;61.60;100747.03;5098590;27;70497;-41
2023/04/19 03:37:33;;;;;;;;;;;;;;;32.01;61.41;100745.69;5095687;27;66178;-40
2023/04/19 03:40:04;;;;;;;;;;;;;;;32.03;61.35;100749.03;5070505;27;69988;-40
2023/04/19 03:42:35;;;;;;;;;;;;;;;32.05;61.31;100745.03;5092779;27;67181;-39
2023/04/19 03:45:15;;;;;;;;;;;;;;;32.09;61.13;100741.84;5090071;27;70430;-40
2023/04/19 03:47:51;;;;;;;;;;;;;;;32.09;61.17;100731.00;5113711;27;66924;-41
2023/04/19 03:50:21;;;;;;;;;;;;;;;32.13;61.11;100732.19;5094354;27;70762;-40
2023/04/19 03:52:54;;;;;;;;;;;;;;;32.16;61.21;100729.00;5104404;27;64986;-40
2023/04/19 03:55:25;;;;;;;;;;;;;;;32.18;61.23;100721.44;5091234;27;70303;-41
2023/04/19 03:57:55;;;;;;;;;;;;;;;32.21;61.02;100721.00;5089239;27;66582;-40
2023/04/19 04:00:36;;;;;;;;;;;;;;;32.22;60.98;100719.94;5095869;27;70092;-41
2023/04/19 04:03:07;;;;;;;;;;;;;;;32.25;60.80;100714.84;5085055;27;66021;-40
2023/04/19 04:05:38;;;;;;;;;;;;;;;32.28;60.91;100719.00;5088696;27;69314;-40
2023/04/19 04:08:10;;;;;;;;;;;;;;;32.30;60.81;100710.63;5094215;27;66933;-40
2023/04/19 04:10:41;;;;;;;;;;;;;;;32.33;60.88;100704.72;5108114;27;69841;-40
2023/04/19 04:13:12;;;;;;;;;;;;;;;32.33;60.81;100702.84;5083653;27;68033;-39
2023/04/19 04:16:02;;;;;;;;;;;;;;;32.37;60.58;100717.56;5091273;27;71632;-40
2023/04/19 04:18:33;;;;;;;;;;;;;;;32.40;60.44;100700.00;5091733;27;66940;-39
2023/04/19 04:21:06;;;;;;;;;;;;;;;32.42;60.66;100693.28;5099022;27;70111;-41
2023/04/19 04:23:40;;;;;;;;;;;;;;;32.44;60.51;100679.47;5092568;27;66207;-40
2023/04/19 04:26:18;;;;;;;;;;;;;;;32.47;60.23;100671.72;5110270;27;70705;-40
2023/04/19 04:29:08;;;;;;;;;;;;;;;32.49;60.44;100683.16;5102402;27;67675;-39
2023/04/19 04:31:42;;;;;;;;;;;;;;;32.52;60.30;100671.00;5106650;27;70598;-40
2023/04/19 04:34:13;;;;;;;;;;;;;;;32.56;59.95;100671.34;5094820;27;66645;-38
2023/04/19 04:36:52;;;;;;;;;;;;;;;32.57;60.18;100664.84;5091644;27;70398;-41
2023/04/19 04:39:23;;;;;;;;;;;;;;;32.60;60.08;100650.81;5105708;27;65462;-39
2023/04/19 04:41:56;;;;;;;;;;;;;;;32.62;59.93;100645.97;5090577;27;70227;-39
2023/04/19 04:44:27;;;;;;;;;;;;;;;32.63;59.87;100650.34;5089678;27;65992;-40
2023/04/19 04:46:58;;;;;;;;;;;;;;;32.63;59.85;100643.03;5107760;27;70590;-40
2023/04/19 04:49:32;;;;;;;;;;;;;;;32.65;59.76;100643.63;5113207;27;66089;-40
2023/04/19 04:52:02;;;;;;;;;;;;;;;32.68;59.84;100634.13;5085539;27;69653;-40
2023/04/19 04:54:39;;;;;;;;;;;;;;;32.71;59.71;100625.53;5091939;27;66036;-42
2023/04/19 04:57:20;;;;;;;;;;;;;;;32.73;59.90;100620.66;5112611;27;69855;-41
2023/04/19 04:59:50;;;;;;;;;;;;;;;32.74;59.35;100625.06;5097711;27;66426;-41
2023/04/19 05:02:22;;;;;;;;;;;;;;;32.76;60.00;100617.47;5116083;27;71029;-41
2023/04/19 05:04:53;;;;;;;;;;;;;;;32.78;59.63;100609.91;5095811;27;65884;-40
2023/04/19 05:07:24;;;;;;;;;;;;;;;32.82;59.38;100604.81;5099558;27;70039;-40
2023/04/19 05:09:55;;;;;;;;;;;;;;;32.85;59.37;100604.38;5089175;27;66023;-40
2023/04/19 05:12:33;;;;;;;;;;;;;;;32.87;59.30;100600.31;5117739;27;69823;-40
2023/04/19 05:15:03;;;;;;;;;;;;;;;32.90;59.30;100597.16;5110378;27;65798;-41
2023/04/19 05:17:34;;;;;;;;;;;;;;;32.92;59.31;100589.56;5101295;27;69748;-41
2023/04/19 05:20:05;;;;;;;;;;;;;;;32.95;59.10;100590.97;5100381;27;65754;-40
2023/04/19 05:22:37;;;;;;;;;;;;;;;32.97;58.91;100585.31;5092619;27;69848;-41
2023/04/19 05:25:10;;;;;;;;;;;;;;;32.99;59.10;100573.13;5091406;27;66912;-40
2023/04/19 05:27:41;;;;;;;;;;;;;;;33.02;58.83;100572.69;5096214;27;71124;-41
2023/04/19 05:30:12;;;;;;;;;;;;;;;33.05;58.91;100566.75;5096249;27;66721;-41
2023/04/19 05:32:45;;;;;;;;;;;;;;;33.07;59.05;100552.91;5097967;27;70676;-40
2023/04/19 05:35:18;;;;;;;;;;;;;;;33.10;58.80;100557.88;5097992;27;67098;-40
2023/04/19 05:37:49;;;;;;;;;;;;;;;33.13;58.84;100551.97;5092144;27;69879;-40
2023/04/19 05:40:19;;;;;;;;;;;;;;;33.15;58.51;100545.22;5092865;27;65684;-40
2023/04/19 05:42:49;;;;;;;;;;;;;;;33.19;58.71;100533.84;5098915;27;70528;-41
2023/04/19 05:45:20;;;;;;;;;;;;;;;33.21;58.43;100534.41;5102305;27;66558;-40
2023/04/19 05:47:51;;;;;;;;;;;;;;;33.23;58.23;100522.22;5105323;27;70057;-39
2023/04/19 05:50:47;;;;;;;;;;;;;;;33.26;58.50;100519.00;5092445;27;65663;-41
2023/04/19 05:53:36;;;;;;;;;;;;;;;33.28;58.41;100516.88;5093168;27;70009;-41
2023/04/19 05:56:07;;;;;;;;;;;;;;;33.32;58.41;100506.31;5095832;27;65286;-41
2023/04/19 05:58:38;;;;;;;;;;;;;;;33.34;58.21;100507.72;5102880;27;70369;-41
2023/04/19 06:01:08;;;;;;;;;;;;;;;33.36;58.36;100502.88;5091326;27;65611;-39
2023/04/19 06:03:39;;;;;;;;;;;;;;;33.38;58.08;100494.50;5096183;27;70393;-41
2023/04/19 06:06:09;;;;;;;;;;;;;;;33.40;58.00;100491.50;5090151;27;66789;-40
2023/04/19 06:08:40;;;;;;;;;;;;;;;33.42;58.00;100481.22;5105222;27;70398;-40
2023/04/19 06:11:11;;;;;;;;;;;;;;;33.47;58.04;100481.31;5095588;27;67255;-41
2023/04/19 06:13:54;;;;;;;;;;;;;;;33.49;58.02;100479.16;5097002;27;69199;-39
2023/04/19 06:16:25;;;;;;;;;;;;;;;33.50;57.77;100469.94;5101596;27;66731;-40
2023/04/19 06:18:56;;;;;;;;;;;;;;;33.51;57.81;100460.69;5091478;27;70816;-40
2023/04/19 06:21:29;;;;;;;;;;;;;;;33.56;57.80;100463.53;5092639;27;66596;-40
2023/04/19 06:23:59;;;;;;;;;;;;;;;33.59;57.62;100463.84;5090387;27;70755;-39
2023/04/19 06:26:29;;;;;;;;;;;;;;;33.59;57.43;100450.25;5099223;27;66727;-40
2023/04/19 06:29:20;;;;;;;;;;;;;;;33.62;57.58;100451.66;5099155;27;69511;-40
2023/04/19 06:32:10;;;;;;;;;;;;;;;33.66;57.37;100446.56;5099286;27;66132;-40
2023/04/19 06:34:59;;;;;;;;;;;;;;;33.67;57.55;100438.13;5094630;27;71182;-39
2023/04/19 06:37:47;;;;;;;;;;;;;;;33.69;57.59;100429.72;5099734;27;66035;-40
2023/04/19 06:40:19;;;;;;;;;;;;;;;33.70;57.39;100424.03;5095364;27;70142;-40
2023/04/19 06:42:50;;;;;;;;;;;;;;;33.71;57.45;100417.53;5093738;27;66587;-40
2023/04/19 06:45:21;;;;;;;;;;;;;;;33.71;57.44;100412.09;5090241;27;70036;-40
2023/04/19 06:47:52;;;;;;;;;;;;;;;33.74;57.17;100405.28;5092295;27;66446;-40
2023/04/19 06:50:23;;;;;;;;;;;;;;;33.75;57.30;100396.91;5086555;27;70491;-44
2023/04/19 06:52:54;;;;;;;;;;;;;;;33.76;57.56;100393.09;5092914;27;65018;-40
2023/04/19 06:55:24;;;;;;;;;;;;;;;33.78;57.14;100395.56;5097087;27;70530;-41
2023/04/19 06:57:55;;;;;;;;;;;;;;;33.81;57.29;100389.63;5096796;27;66898;-41
2023/04/19 07:00:26;;;;;;;;;;;;;;;33.81;57.35;100379.56;5099859;27;70265;-40
2023/04/19 07:02:58;;;;;;;;;;;;;;;33.84;57.14;100378.25;5090926;27;66694;-40
2023/04/19 07:05:30;;;;;;;;;;;;;;;33.89;57.15;100386.47;5092407;27;70366;-40
2023/04/19 07:08:00;;;;;;;;;;;;;;;33.92;56.83;100376.97;5092440;27;66778;-40
2023/04/19 07:10:31;;;;;;;;;;;;;;;33.92;56.94;100357.94;5090611;27;69996;-40
2023/04/19 07:13:01;;;;;;;;;;;;;;;33.95;56.82;100360.16;5099736;27;66204;-40
2023/04/19 07:15:31;;;;;;;;;;;;;;;33.97;57.01;100361.53;5094887;27;69932;-40
2023/04/19 07:18:02;;;;;;;;;;;;;;;34.00;56.95;100354.78;5090121;27;66387;-40
2023/04/19 07:20:33;;;;;;;;;;;;;;;34.05;57.04;100346.69;5095589;27;70490;-39
2023/04/19 07:23:03;;;;;;;;;;;;;;;34.08;56.76;100342.66;5086823;27;66647;-40
2023/04/19 07:25:34;;;;;;;;;;;;;;;34.10;57.12;100338.59;5092382;27;69900;-41
2023/04/19 07:28:05;;;;;;;;;;;;;;;34.13;56.83;100332.63;5098800;27;66664;-42
2023/04/19 07:30:35;;;;;;;;;;;;;;;33.74;56.60;100264.69;5091647;27;69680;-41
2023/04/19 07:33:07;;;;;;;;;;;;;;;34.18;56.71;100329.13;5091938;27;66108;-41
2023/04/19 07:35:41;;;;;;;;;;;;;;;34.19;56.88;100323.44;5089989;27;70932;-42
2023/04/19 07:38:11;;;;;;;;;;;;;;;34.21;56.84;100321.28;5085717;27;66896;-42
2023/04/19 07:40:42;;;;;;;;;;;;;;;34.23;56.44;100319.13;5087926;27;70495;-41
2023/04/19 07:43:13;;;;;;;;;;;;;;;34.25;56.91;100311.53;5092605;27;66058;-41
2023/04/19 07:45:44;;;;;;;;;;;;;;;34.26;56.66;100321.31;5092587;27;70317;-40
2023/04/19 07:48:15;;;;;;;;;;;;;;;34.28;56.46;100306.66;5095262;27;66635;-40
2023/04/19 07:50:45;;;;;;;;;;;;;;;34.29;56.42;100308.28;5093187;27;70308;-41
2023/04/19 07:53:17;;;;;;;;;;;;;;;34.31;56.81;100306.13;5092973;27;66256;-39
2023/04/19 07:55:47;;;;;;;;;;;;;;;34.33;56.83;100288.47;5093622;27;69050;-41
2023/04/19 07:58:17;;;;;;;;;;;;;;;34.35;56.36;100290.91;5091334;27;65395;-40
2023/04/19 08:00:49;;;;;;;;;;;;;;;34.37;56.73;100305.09;5091013;27;69892;-41
2023/04/19 08:03:20;;;;;;;;;;;;;;;34.39;56.21;100292.06;5113516;27;67813;-39
2023/04/19 08:05:52;;;;;;;;;;;;;;;34.40;56.62;100288.25;5099481;27;69001;-40
2023/04/19 08:08:24;;;;;;;;;;;;;;;34.42;56.62;100280.63;5107481;27;67026;-43
2023/04/19 08:10:55;;;;;;;;;;;;;;;34.43;56.51;100282.28;5091062;27;69791;-40
2023/04/19 08:13:27;;;;;;;;;;;;;;;34.44;56.22;100281.22;5104426;27;66424;-40
2023/04/19 08:15:58;;;;;;;;;;;;;;;34.48;56.41;100279.59;5096050;27;70672;-40
2023/04/19 08:18:35;;;;;;;;;;;;;;;34.51;56.54;100278.25;5083282;27;59916;-42
2023/04/19 08:21:05;;;;;;;;;;;;;;;34.52;56.52;100275.28;5085053;27;69331;-40
2023/04/19 08:23:36;;;;;;;;;;;;;;;34.53;56.37;100268.75;5093014;27;67077;-40
2023/04/19 08:26:16;;;;;;;;;;;;;;;34.56;56.32;100275.63;5097197;27;68568;-39
2023/04/19 08:28:51;;;;;;;;;;;;;;;34.57;56.05;100272.63;5090186;27;66022;-40
2023/04/19 08:31:21;;;;;;;;;;;;;;;34.60;56.23;100272.13;5096772;27;70425;-41
2023/04/19 08:33:52;;;;;;;;;;;;;;;34.61;55.95;100281.94;5091681;27;65639;-41
2023/04/19 08:36:23;;;;;;;;;;;;;;;34.64;56.33;100284.13;5090608;27;70779;-40
2023/04/19 08:39:07;;;;;;;;;;;;;;;34.65;56.26;100274.88;5109318;27;66141;-41
2023/04/19 08:41:55;;;;;;;;;;;;;;;34.64;55.93;100267.78;5082594;27;69240;-41
2023/04/19 08:44:39;;;;;;;;;;;;;;;34.65;56.49;100263.97;5093916;27;66339;-40
2023/04/19 08:47:30;;;;;;;;;;;;;;;34.68;56.23;100268.88;5092244;27;70670;-42
2023/04/19 08:50:07;;;;;;;;;;;;;;;34.70;56.59;100255.03;5090860;27;66638;-40
2023/04/19 08:52:58;;;;;;;;;;;;;;;34.71;56.29;100256.66;5084724;27;70129;-41
2023/04/19 08:55:35;;;;;;;;;;;;;;;34.72;56.39;100261.03;5089693;27;67259;-40
2023/04/19 08:58:10;;;;;;;;;;;;;;;34.73;56.21;100265.38;5085641;27;70144;-41
2023/04/19 09:01:03;;;;;;;;;;;;;;;34.74;56.53;100255.31;5092082;27;66074;-40
2023/04/19 09:03:35;;;;;;;;;;;;;;;34.75;56.55;100251.53;5102985;27;69806;-42
2023/04/19 09:06:19;;;;;;;;;;;;;;;34.75;56.58;100246.06;5102893;27;66440;-40
2023/04/19 09:08:56;;;;;;;;;;;;;;;34.75;56.61;100249.63;5094052;27;70331;-42
2023/04/19 09:11:37;;;;;;;;;;;;;;;34.78;56.80;100251.00;5081855;27;66906;-40
2023/04/19 09:14:08;;;;;;;;;;;;;;;34.56;58.63;100253.81;5093200;27;70300;-41
2023/04/19 09:16:38;;;;;;;;;;;;;;;34.41;59.15;100258.03;5092280;27;66107;-40
2023/04/19 09:19:10;;;;;;;;;;;;;;;34.31;59.75;100251.69;5082042;27;70640;-41
2023/04/19 09:21:54;;;;;;;;;;;;;;;34.28;60.65;100246.75;5092460;27;66597;-40
2023/04/19 09:24:37;;;;;;;;;;;;;;;34.23;61.11;100237.44;5077927;27;69615;-41
2023/04/19 09:27:13;;;;;;;;;;;;;;;34.20;61.34;100229.81;5093263;27;66160;-41
2023/04/19 09:29:52;;;;;;;;;;;;;;;34.17;62.00;100235.78;5090645;27;70047;-41
2023/04/19 09:32:23;;;;;;;;;;;;;;;34.16;62.06;100249.66;5091584;27;67054;-41
2023/04/19 09:34:54;;;;;;;;;;;;;;;34.10;62.25;100246.06;5088223;27;70541;-41
2023/04/19 09:37:26;;;;;;;;;;;;;;;34.10;62.61;100251.50;5086361;27;66286;-41
2023/04/19 09:39:59;;;;;;;;;;;;;;;34.08;62.84;100248.22;5097494;27;69906;-41
2023/04/19 09:42:45;;;;;;;;;;;;;;;34.07;63.12;100245.72;5089646;27;66853;-44
2023/04/19 09:45:19;;;;;;;;;;;;;;;34.09;62.92;100252.56;5073671;27;69085;-40
2023/04/19 09:48:02;;;;;;;;;;;;;;;34.08;63.35;100248.22;5087775;27;66032;-41
2023/04/19 09:50:33;;;;;;;;;;;;;;;34.05;63.35;100256.91;5092716;27;70261;-39
2023/04/19 09:53:23;;;;;;;;;;;;;;;34.05;63.36;100253.34;5083668;27;66743;-38
2023/04/19 09:55:54;;;;;;;;;;;;;;;34.00;63.54;100248.63;5091551;27;70310;-39
2023/04/19 09:58:31;;;;;;;;;;;;;;;34.01;63.87;100247.56;5097092;27;66212;-40
2023/04/19 10:01:19;;;;;;;;;;;;;;;34.00;64.02;100240.47;5089047;27;69429;-40
2023/04/19 10:03:49;;;;;;;;;;;;;;;33.98;64.50;100245.34;5096382;27;67375;-40
2023/04/19 10:06:21;;;;;;;;;;;;;;;33.95;64.29;100243.97;5093995;27;70038;-39
2023/04/19 10:08:55;;;;;;;;;;;;;;;33.95;64.08;100248.59;5090259;27;66343;-42
2023/04/19 10:11:26;;;;;;;;;;;;;;;33.95;64.54;100248.59;5091372;27;69051;-41
2023/04/19 10:13:58;;;;;;;;;;;;;;;33.92;64.90;100240.94;5095640;27;66553;-40
2023/04/19 10:16:30;;;;;;;;;;;;;;;33.91;65.22;100248.28;5092118;27;70961;-39
2023/04/19 10:19:04;;;;;;;;;;;;;;;33.91;65.82;100250.19;5095934;27;65496;-40
2023/04/19 10:21:37;;;;;;;;;;;;;;;33.90;66.10;100249.34;5100245;27;70038;-40
2023/04/19 10:24:08;;;;;;;;;;;;;;;33.88;65.71;100254.25;5091274;27;66056;-40
2023/04/19 10:26:57;;;;;;;;;;;;;;;33.93;65.27;100250.72;5106119;27;70781;-40
2023/04/19 10:29:46;;;;;;;;;;;;;;;34.05;64.73;100261.53;5098438;27;68124;-39
2023/04/19 10:32:17;;;;;;;;;;;;;;;34.16;64.07;100264.06;5092473;27;69982;-40
2023/04/19 10:34:48;;;;;;;;;;;;;;;34.21;64.04;100261.41;5106103;27;67146;-40
2023/04/19 10:37:21;;;;;;;;;;;;;;;34.25;63.48;100265.25;5088919;27;70801;-39
2023/04/19 10:39:51;;;;;;;;;;;;;;;34.30;63.38;100271.78;5106680;27;66860;-40
2023/04/19 10:42:21;;;;;;;;;;;;;;;34.34;63.30;100276.47;5091353;27;68786;-40
2023/04/19 10:45:10;;;;;;;;;;;;;;;34.36;62.70;100277.06;5091260;27;65298;-40
2023/04/19 10:47:44;;;;;;;;;;;;;;;34.38;63.13;100282.22;5090573;27;69667;-40
2023/04/19 10:50:16;;;;;;;;;;;;;;;34.37;63.15;100288.75;5091215;27;67410;-40
2023/04/19 10:52:47;;;;;;;;;;;;;;;34.38;62.85;100293.13;5089410;27;70482;-40
2023/04/19 10:55:20;;;;;;;;;;;;;;;34.38;62.45;100293.97;5094422;27;66516;-39
2023/04/19 10:58:06;;;;;;;;;;;;;;;34.39;62.73;100303.75;5088959;27;69882;-40
2023/04/19 11:00:37;;;;;;;;;;;;;;;34.39;62.92;100302.94;5091106;27;66902;-39
2023/04/19 11:03:26;;;;;;;;;;;;;;;34.38;62.99;100301.28;5093127;27;70065;-39
2023/04/19 11:06:26;;;;;;;;;;;;;;;34.38;62.96;100306.72;5092288;27;66617;-41
2023/04/19 11:08:56;;;;;;;;;;;;;;;34.37;62.78;100305.09;5096135;27;69880;-39
2023/04/19 11:11:27;;;;;;;;;;;;;;;34.38;63.01;100307.56;5093167;27;66146;-40
2023/04/19 11:14:01;;;;;;;;;;;;;;;34.35;62.88;100307.25;5101579;27;69749;-41
2023/04/19 11:16:31;;;;;;;;;;;;;;;34.33;63.38;100309.44;5090343;27;66685;-40
2023/04/19 11:19:17;;;;;;;;;;;;;;;34.33;62.89;100310.25;5101550;27;70497;-41
2023/04/19 11:21:48;;;;;;;;;;;;;;;34.32;63.21;100315.94;5087165;27;67110;-41
2023/04/19 11:24:19;;;;;;;;;;;;;;;34.29;63.49;100325.44;5088247;27;70284;-41
2023/04/19 11:26:49;;;;;;;;;;;;;;;34.28;63.43;100328.44;5097027;27;65155;-40
2023/04/19 11:29:24;;;;;;;;;;;;;;;34.28;63.71;100333.88;5090197;27;70058;-39
2023/04/19 11:32:00;;;;;;;;;;;;;;;34.24;63.36;100328.94;5099133;27;66249;-41
2023/04/19 11:34:38;;;;;;;;;;;;;;;34.23;63.76;100332.72;5100094;27;68998;-40
2023/04/19 11:37:10;;;;;;;;;;;;;;;34.23;63.66;100332.72;5092369;27;66827;-40
2023/04/19 11:39:46;;;;;;;;;;;;;;;34.23;63.90;100338.16;5098414;27;69137;-38
2023/04/19 11:42:18;;;;;;;;;;;;;;;34.22;64.17;100341.97;5089460;27;66130;-39
2023/04/19 11:44:50;;;;;;;;;;;;;;;34.20;64.21;100346.03;5095569;27;70309;-39
2023/04/19 11:47:23;;;;;;;;;;;;;;;34.20;63.88;100359.66;5098794;27;67056;-40
2023/04/19 11:49:55;;;;;;;;;;;;;;;34.16;64.52;100359.34;5097204;27;70693;-40
2023/04/19 11:52:26;;;;;;;;;;;;;;;34.11;65.29;100362.00;5099049;27;65580;-41
2023/04/19 11:55:23;;;;;;;;;;;;;;;33.94;66.05;100375.66;5090614;27;70417;-41
2023/04/19 11:57:53;;;;;;;;;;;;;;;33.84;66.80;100374.69;5096094;27;66221;-41
2023/04/19 12:00:28;;;;;;;;;;;;;;;33.75;67.03;100369.69;5086217;27;69511;-41
2023/04/19 12:02:58;;;;;;;;;;;;;;;33.69;67.47;100369.91;5097683;27;65575;-40
2023/04/19 12:06:10;;;;;;;;;;;;;;;33.63;67.95;100388.03;5047880;28;70178;-41
2023/04/19 12:08:47;;;;;;;;;;;;;;;33.59;68.14;100386.88;5082167;27;66547;-40
2023/04/19 12:11:18;;;;;;;;;;;;;;;33.55;68.85;100393.91;5093440;27;70917;-41
2023/04/19 12:14:13;;;;;;;;;;;;;;;33.54;68.46;100389.53;5082078;27;66503;-41
2023/04/19 12:17:19;;;;;;;;;;;;;;;33.52;68.83;100402.53;5057657;28;69953;-41
2023/04/19 12:19:50;;;;;;;;;;;;;;;33.52;68.86;100413.41;5089029;27;66841;-41
2023/04/19 12:22:23;;;;;;;;;;;;;;;33.48;68.90;100412.25;5098432;27;69780;-40
2023/04/19 12:24:54;;;;;;;;;;;;;;;33.46;68.62;100420.66;5089873;27;66840;-40
2023/04/19 12:27:25;;;;;;;;;;;;;;;33.47;68.89;100416.06;5099371;27;69378;-42
2023/04/19 12:29:55;;;;;;;;;;;;;;;33.38;67.61;100423.81;5094934;27;66520;-41
2023/04/19 12:32:35;;;;;;;;;;;;;;;33.20;65.51;100422.16;5097402;27;70822;-41
2023/04/19 12:35:06;;;;;;;;;;;;;;;33.04;63.50;100415.66;5097214;27;66559;-40
2023/04/19 12:37:36;;;;;;;;;;;;;;;32.92;63.08;100423.00;5097904;27;70086;-42
2023/04/19 12:40:07;;;;;;;;;;;;;;;32.81;62.44;100435.59;5105737;27;66569;-41
2023/04/19 12:42:38;;;;;;;;;;;;;;;32.73;61.78;100433.25;5095598;27;71453;-40
2023/04/19 12:45:08;;;;;;;;;;;;;;;32.67;62.95;100434.25;5091424;27;66827;-45
2023/04/19 12:47:40;;;;;;;;;;;;;;;32.64;62.32;100429.31;5096559;27;69323;-41
2023/04/19 12:50:12;;;;;;;;;;;;;;;32.56;61.20;100435.13;5095780;27;65381;-42
2023/04/19 12:52:42;;;;;;;;;;;;;;;32.40;60.38;100431.25;5096477;27;70635;-41
2023/04/19 12:55:12;;;;;;;;;;;;;;;32.34;59.87;100440.34;5096520;27;66523;-44
2023/04/19 12:57:43;;;;;;;;;;;;;;;32.29;59.92;100443.81;5095468;27;69894;-40
2023/04/19 13:00:23;;;;;;;;;;;;;;;32.22;59.83;100451.25;5092706;27;66608;-41
2023/04/19 13:02:54;;;;;;;;;;;;;;;32.17;59.08;100454.66;5105690;27;69930;-42
2023/04/19 13:05:24;;;;;;;;;;;;;;;32.09;58.07;100468.59;5100132;27;67026;-42
2023/04/19 13:08:07;;;;;;;;;;;;;;;32.04;59.12;100455.78;5094439;27;69228;-41